createdAt,value
2023-05-19T00:06:39.330Z,87.90
2023-05-19T00:14:48.163Z,87.70
2023-05-19T00:22:54.039Z,87.70
2023-05-19T01:07:02.595Z,88.00
2023-05-19T01:15:40.819Z,88.00
2023-05-19T01:24:53.597Z,88.00
2023-05-19T01:33:48.693Z,88.00
2023-05-19T01:42:02.801Z,88.20
2023-05-19T01:50:11.711Z,88.20
2023-05-19T01:58:24.802Z,88.20
2023-05-19T02:06:40.077Z,88.30
2023-05-19T02:14:52.786Z,88.00
2023-05-19T02:23:00.912Z,88.60
2023-05-19T02:31:09.288Z,88.40
2023-05-19T02:39:17.282Z,88.30
2023-05-19T02:47:22.839Z,90.20
2023-05-19T02:55:31.083Z,89.90
2023-05-19T03:03:36.801Z,88.80
2023-05-19T03:11:45.070Z,89.00
2023-05-19T03:19:51.885Z,88.60
2023-05-19T03:27:59.989Z,88.10
2023-05-19T03:36:05.786Z,87.60
2023-05-19T03:44:17.796Z,87.20
2023-05-19T03:52:23.538Z,86.90
2023-05-19T04:00:40.512Z,86.50
2023-05-19T04:08:46.095Z,86.50
2023-05-19T04:16:54.510Z,86.70
2023-05-19T04:25:00.702Z,88.00
2023-05-19T04:33:10.034Z,88.40
2023-05-19T04:41:16.690Z,88.00
2023-05-19T04:49:28.808Z,87.60
2023-05-19T04:57:34.315Z,86.20
2023-05-19T05:05:42.707Z,86.00
2023-05-19T05:13:48.864Z,84.40
2023-05-19T05:21:58.020Z,83.70
2023-05-19T05:30:04.231Z,82.40
2023-05-19T05:38:14.067Z,80.80
2023-05-19T05:46:20.628Z,79.20
2023-05-19T05:54:29.673Z,77.30
2023-05-19T06:02:35.360Z,76.10
2023-05-19T06:10:45.792Z,74.10
2023-05-19T06:18:54.959Z,73.60
2023-05-19T06:27:05.001Z,72.60
2023-05-19T06:35:11.259Z,70.90
2023-05-19T06:43:19.475Z,71.50
2023-05-19T06:51:36.104Z,71.50
2023-05-19T06:59:45.634Z,71.60
2023-05-19T07:08:26.704Z,70.60
2023-05-19T07:16:42.280Z,71.40
2023-05-19T07:24:47.794Z,70.70
2023-05-19T07:32:58.130Z,70.40
2023-05-19T07:41:03.628Z,70.00
2023-05-19T07:49:11.525Z,70.70
2023-05-19T07:57:17.207Z,69.40
2023-05-19T08:05:25.940Z,68.60
2023-05-19T08:13:31.713Z,70.00
2023-05-19T08:21:39.812Z,68.70
2023-05-19T08:29:45.344Z,67.20
2023-05-19T08:37:53.789Z,67.40
2023-05-19T08:45:59.451Z,67.10
2023-05-19T08:54:18.928Z,65.80
2023-05-19T09:02:27.362Z,66.50
2023-05-19T09:10:35.512Z,66.70
2023-05-19T09:18:42.860Z,67.80
2023-05-19T09:26:50.827Z,67.80
2023-05-19T09:34:57.413Z,66.20
2023-05-19T09:43:11.145Z,63.90
2023-05-19T09:51:17.746Z,66.70
2023-05-19T09:59:29.937Z,64.90
2023-05-19T10:07:38.173Z,62.60
2023-05-19T10:23:59.598Z,63.50
2023-05-19T10:32:12.595Z,60.50
2023-05-19T10:40:24.569Z,59.20
2023-05-19T10:48:36.320Z,58.70
2023-05-19T10:56:43.256Z,54.10
2023-05-19T11:04:54.371Z,57.90
2023-05-19T11:13:01.307Z,56.90
2023-05-19T11:21:09.451Z,55.90
2023-05-19T11:29:15.035Z,53.90
2023-05-19T11:37:23.032Z,54.40
2023-05-19T11:45:29.149Z,48.60
2023-05-19T11:53:38.873Z,40.40
2023-05-19T12:01:43.992Z,41.00
2023-05-19T12:09:53.162Z,34.90
2023-05-19T12:18:01.972Z,32.70
2023-05-19T12:26:10.770Z,31.90
2023-05-19T12:34:16.299Z,40.80
2023-05-19T12:42:24.382Z,53.60
2023-05-19T12:50:34.736Z,57.70
2023-05-19T12:58:43.298Z,58.30
2023-05-19T13:06:49.815Z,56.70
2023-05-19T13:14:58.062Z,57.50
2023-05-19T13:23:03.617Z,57.10
2023-05-19T13:31:11.685Z,50.40
2023-05-19T13:39:17.175Z,40.40
2023-05-19T13:47:26.189Z,40.70
2023-05-19T13:55:31.974Z,47.10
2023-05-19T14:03:40.063Z,51.90
2023-05-19T14:11:46.111Z,58.60
2023-05-19T14:19:54.213Z,59.60
2023-05-19T14:27:59.661Z,58.40
2023-05-19T14:36:08.404Z,58.70
2023-05-19T14:44:13.727Z,59.50
2023-05-19T14:52:21.809Z,59.60
2023-05-19T15:00:27.941Z,60.80
2023-05-19T15:08:37.906Z,59.10
2023-05-19T15:16:43.371Z,59.10
2023-05-19T15:24:51.599Z,59.40
2023-05-19T15:32:56.981Z,59.80
2023-05-19T15:41:08.859Z,62.10
2023-05-19T15:49:14.264Z,62.80
2023-05-19T15:57:22.393Z,62.90
2023-05-19T16:05:27.886Z,63.80
2023-05-19T16:13:36.318Z,63.40
2023-05-19T16:21:41.764Z,64.60
2023-05-19T16:29:49.860Z,63.80
2023-05-19T16:37:55.319Z,62.60
2023-05-19T16:46:04.804Z,62.60
2023-05-19T16:54:10.251Z,65.40
2023-05-19T17:02:18.322Z,64.10
2023-05-19T17:10:23.908Z,62.30
2023-05-19T17:18:31.988Z,62.60
2023-05-19T17:26:37.425Z,63.20
2023-05-19T17:34:45.444Z,64.10
2023-05-19T17:42:50.750Z,64.60
2023-05-19T17:50:58.746Z,64.80
2023-05-19T17:59:04.911Z,66.30
2023-05-19T18:07:14.040Z,68.10
2023-05-19T18:15:25.366Z,69.00
2023-05-19T18:23:33.464Z,70.80
2023-05-19T18:31:39.029Z,71.20
2023-05-19T18:39:47.025Z,72.10
2023-05-19T18:47:52.469Z,73.10
2023-05-19T18:56:00.765Z,73.30
2023-05-19T19:04:06.206Z,73.60
2023-05-19T19:12:15.310Z,74.50
2023-05-19T19:20:20.930Z,74.60
2023-05-19T19:28:29.190Z,75.10
2023-05-19T19:36:34.878Z,75.60
2023-05-19T19:44:43.231Z,76.10
2023-05-19T19:52:48.849Z,79.30
2023-05-19T20:00:59.115Z,82.30
2023-05-19T20:09:05.205Z,84.10
2023-05-19T20:17:15.249Z,83.60
2023-05-19T20:25:20.689Z,84.10
2023-05-19T20:33:28.767Z,83.50
2023-05-19T20:41:34.177Z,82.80
2023-05-19T20:49:42.150Z,83.00
2023-05-19T20:57:47.720Z,82.60
2023-05-19T21:05:55.839Z,82.90
2023-05-19T21:14:01.739Z,82.40
2023-05-19T21:22:09.892Z,82.00
2023-05-19T21:30:16.403Z,81.90
2023-05-19T21:38:24.533Z,82.50
2023-05-19T21:46:30.200Z,82.50
2023-05-19T21:54:38.658Z,83.30
2023-05-19T22:02:44.247Z,83.30
2023-05-19T22:10:54.772Z,84.50
2023-05-19T22:19:00.343Z,85.70
2023-05-19T22:27:10.336Z,85.40
2023-05-19T22:35:17.880Z,87.00
2023-05-19T22:43:26.071Z,86.60
2023-05-19T22:51:31.514Z,86.00
2023-05-19T22:59:40.234Z,86.40
2023-05-19T23:07:46.792Z,87.30
2023-05-19T23:15:55.002Z,87.40
2023-05-19T23:24:00.604Z,87.50
2023-05-19T23:32:09.440Z,88.40
2023-05-19T23:40:15.780Z,89.30
2023-05-19T23:48:23.888Z,89.50
2023-05-19T23:56:29.389Z,90.20
